Santa Maria Airport

About
Name: Santa Maria Airport
Identifier:  SMA/LPAZ
Local Time:  20. Jul 07:13 +00
Location
Santa Maria
  Portugal

Flights per Day
3 flights
Distance: 428km (266mi)
Punctuality
76% (0 flights per day delayed)
Delay Average: 9 minutes
Current Weather
 21 C (Humidity: 94%)
  5kt (9km/h / 5mph) from 300°
  Scattered clouds at 700 feet (213 meter)
  9km (6 mi.)
 METAR LPAZ 200700Z 30005KT 9999 SCT007 21/20 Q1023

Current Flights

Current Delays

Departures
N/A
Arrivals
N/A

Destinations

Top Destinations
Airport Flights
per week
Seats
per week
  Ponta Delgada (PDL) 27 322 3 46
  Lisbon (LIS) 5 957 0 136
  St. John's (YYT) 5 - 0 0
  Fort Lauderdale (FXE) 0 - 0 0
  Fort-de-France (FDF) 0 - 0 0
  Linz (LNZ) 0 - 0 0
  Bermuda (BDA) 0 - 0 0
  Farmingdale (FRG) 0 - 0 0
  Santo Domingo (SDQ) 0 - 0 0

Airlines & Planes

Top Airlines
Airline Flights
per Day
Seats
per Day
  SATA - Air Acores 3 40
  National Airlines 0 -
  Azores Airlines 0 70
  flynas 0 60
  Hi Fly 0 -
Jet Charter Inc ( Franklin Lakes Nj ) 0 -
Volga-Dnepr 0 -
  White 0 12
Swiss Air-Ambulance 0 -
Top Plane Types
Model Flights Seats
Bombardier Dash 8-400 2.8/day - 0
Bombardier Dash 8-200 1.1/day 40/day 40.7
Airbus A320 0.5/day 82/day 82.16666666666667
Boeing B767-300 0.2/day 60/day 60
Airbus A319 0.2/day - 0
Antonov An-124 0.1/day - 0
Dassault Falcon 900 0.0/day - 0
Bombardier Challenger 600 0.0/day - 0
Gulfstream Gulfstream G200 0.0/day - 0